sensor_id;sensor_type;location;lat;lon;timestamp;P1;durP1;ratioP1;P2;durP2;ratioP2
71148;SDS011;59072;42.144;25.200;2023-06-22T00:01:46;9.63;;;8.32;;
71148;SDS011;59072;42.144;25.200;2023-06-22T00:04:12;12.05;;;8.95;;
71148;SDS011;59072;42.144;25.200;2023-06-22T00:06:37;11.45;;;8.80;;
71148;SDS011;59072;42.144;25.200;2023-06-22T00:09:03;10.57;;;8.13;;
71148;SDS011;59072;42.144;25.200;2023-06-22T00:11:28;11.10;;;8.35;;
71148;SDS011;59072;42.144;25.200;2023-06-22T00:13:54;11.95;;;8.82;;
71148;SDS011;59072;42.144;25.200;2023-06-22T00:16:19;12.27;;;8.02;;
71148;SDS011;59072;42.144;25.200;2023-06-22T00:18:45;11.50;;;8.80;;
71148;SDS011;59072;42.144;25.200;2023-06-22T00:21:12;11.03;;;8.73;;
71148;SDS011;59072;42.144;25.200;2023-06-22T00:23:38;13.18;;;9.20;;
71148;SDS011;59072;42.144;25.200;2023-06-22T00:26:03;12.90;;;8.40;;
71148;SDS011;59072;42.144;25.200;2023-06-22T00:28:29;11.40;;;8.70;;
71148;SDS011;59072;42.144;25.200;2023-06-22T00:30:55;10.50;;;8.63;;
71148;SDS011;59072;42.144;25.200;2023-06-22T00:33:21;10.45;;;8.25;;
71148;SDS011;59072;42.144;25.200;2023-06-22T00:35:46;10.35;;;8.38;;
71148;SDS011;59072;42.144;25.200;2023-06-22T00:38:11;11.70;;;8.70;;
71148;SDS011;59072;42.144;25.200;2023-06-22T00:40:37;11.65;;;8.13;;
71148;SDS011;59072;42.144;25.200;2023-06-22T00:43:03;14.57;;;8.88;;
71148;SDS011;59072;42.144;25.200;2023-06-22T00:45:30;12.52;;;9.25;;
71148;SDS011;59072;42.144;25.200;2023-06-22T00:47:57;11.00;;;8.50;;
71148;SDS011;59072;42.144;25.200;2023-06-22T00:50:24;12.15;;;9.63;;
71148;SDS011;59072;42.144;25.200;2023-06-22T00:52:52;12.07;;;9.10;;
71148;SDS011;59072;42.144;25.200;2023-06-22T00:55:22;11.93;;;9.10;;
71148;SDS011;59072;42.144;25.200;2023-06-22T00:57:48;11.55;;;8.80;;
71148;SDS011;59072;42.144;25.200;2023-06-22T01:00:16;11.32;;;9.25;;
71148;SDS011;59072;42.144;25.200;2023-06-22T01:02:44;11.88;;;9.05;;
71148;SDS011;59072;42.144;25.200;2023-06-22T01:05:14;11.43;;;8.57;;
71148;SDS011;59072;42.144;25.200;2023-06-22T01:08:29;12.00;;;8.48;;
71148;SDS011;59072;42.144;25.200;2023-06-22T01:10:43;11.15;;;8.88;;
71148;SDS011;59072;42.144;25.200;2023-06-22T01:13:28;12.52;;;8.38;;
71148;SDS011;59072;42.144;25.200;2023-06-22T01:18:42;11.43;;;8.48;;
71148;SDS011;59072;42.144;25.200;2023-06-22T01:21:10;12.55;;;8.90;;
71148;SDS011;59072;42.144;25.200;2023-06-22T01:28:55;10.98;;;8.32;;
71148;SDS011;59072;42.144;25.200;2023-06-22T01:31:26;11.93;;;8.07;;
71148;SDS011;59072;42.144;25.200;2023-06-22T01:33:55;13.32;;;8.50;;
71148;SDS011;59072;42.144;25.200;2023-06-22T01:36:24;12.68;;;7.80;;
71148;SDS011;59072;42.144;25.200;2023-06-22T01:38:51;12.43;;;8.35;;
71148;SDS011;59072;42.144;25.200;2023-06-22T01:41:19;10.27;;;8.45;;
71148;SDS011;59072;42.144;25.200;2023-06-22T01:43:45;11.23;;;8.50;;
71148;SDS011;59072;42.144;25.200;2023-06-22T01:46:12;12.48;;;8.32;;
71148;SDS011;59072;42.144;25.200;2023-06-22T01:48:39;12.32;;;8.93;;
71148;SDS011;59072;42.144;25.200;2023-06-22T01:51:05;12.05;;;8.50;;
71148;SDS011;59072;42.144;25.200;2023-06-22T01:53:31;11.05;;;8.18;;
71148;SDS011;59072;42.144;25.200;2023-06-22T01:55:56;13.88;;;10.32;;
71148;SDS011;59072;42.144;25.200;2023-06-22T01:58:23;14.90;;;10.05;;
71148;SDS011;59072;42.144;25.200;2023-06-22T02:00:56;14.85;;;10.13;;
71148;SDS011;59072;42.144;25.200;2023-06-22T02:03:35;13.38;;;9.43;;
71148;SDS011;59072;42.144;25.200;2023-06-22T02:06:07;14.13;;;10.13;;
71148;SDS011;59072;42.144;25.200;2023-06-22T02:08:40;14.57;;;10.60;;
71148;SDS011;59072;42.144;25.200;2023-06-22T02:11:11;15.25;;;10.25;;
71148;SDS011;59072;42.144;25.200;2023-06-22T02:13:40;17.00;;;10.55;;
71148;SDS011;59072;42.144;25.200;2023-06-22T02:16:08;19.48;;;12.88;;
71148;SDS011;59072;42.144;25.200;2023-06-22T02:18:36;19.83;;;13.23;;
71148;SDS011;59072;42.144;25.200;2023-06-22T02:21:02;18.48;;;12.35;;
71148;SDS011;59072;42.144;25.200;2023-06-22T02:23:28;20.38;;;11.65;;
71148;SDS011;59072;42.144;25.200;2023-06-22T02:25:53;17.45;;;11.23;;
71148;SDS011;59072;42.144;25.200;2023-06-22T02:28:19;15.65;;;11.43;;
71148;SDS011;59072;42.144;25.200;2023-06-22T02:30:44;15.52;;;10.27;;
71148;SDS011;59072;42.144;25.200;2023-06-22T02:33:10;14.65;;;10.32;;
71148;SDS011;59072;42.144;25.200;2023-06-22T02:35:35;14.20;;;9.32;;
71148;SDS011;59072;42.144;25.200;2023-06-22T02:38:01;12.18;;;8.68;;
71148;SDS011;59072;42.144;25.200;2023-06-22T02:40:30;14.07;;;9.50;;
71148;SDS011;59072;42.144;25.200;2023-06-22T02:42:57;11.23;;;9.05;;
71148;SDS011;59072;42.144;25.200;2023-06-22T02:45:26;17.15;;;9.85;;
71148;SDS011;59072;42.144;25.200;2023-06-22T02:47:52;13.57;;;9.15;;
71148;SDS011;59072;42.144;25.200;2023-06-22T02:50:17;12.23;;;8.82;;
71148;SDS011;59072;42.144;25.200;2023-06-22T02:52:43;13.98;;;9.60;;
71148;SDS011;59072;42.144;25.200;2023-06-22T02:55:08;14.15;;;9.15;;
71148;SDS011;59072;42.144;25.200;2023-06-22T02:57:34;13.23;;;9.10;;
71148;SDS011;59072;42.144;25.200;2023-06-22T02:59:59;13.27;;;8.10;;
71148;SDS011;59072;42.144;25.200;2023-06-22T03:02:25;11.60;;;8.65;;
71148;SDS011;59072;42.144;25.200;2023-06-22T03:04:51;13.30;;;9.55;;
71148;SDS011;59072;42.144;25.200;2023-06-22T03:07:19;13.10;;;10.18;;
71148;SDS011;59072;42.144;25.200;2023-06-22T03:09:45;17.05;;;11.30;;
71148;SDS011;59072;42.144;25.200;2023-06-22T03:12:11;17.25;;;11.00;;
71148;SDS011;59072;42.144;25.200;2023-06-22T03:14:36;17.67;;;11.48;;
71148;SDS011;59072;42.144;25.200;2023-06-22T03:17:03;17.83;;;10.43;;
71148;SDS011;59072;42.144;25.200;2023-06-22T03:19:30;15.48;;;10.70;;
71148;SDS011;59072;42.144;25.200;2023-06-22T03:21:59;15.52;;;10.48;;
71148;SDS011;59072;42.144;25.200;2023-06-22T03:24:25;16.30;;;11.07;;
71148;SDS011;59072;42.144;25.200;2023-06-22T03:29:19;17.70;;;10.95;;
71148;SDS011;59072;42.144;25.200;2023-06-22T03:31:45;15.38;;;10.90;;
71148;SDS011;59072;42.144;25.200;2023-06-22T03:34:10;15.32;;;11.52;;
71148;SDS011;59072;42.144;25.200;2023-06-22T03:36:36;15.63;;;12.02;;
71148;SDS011;59072;42.144;25.200;2023-06-22T03:39:01;14.75;;;11.18;;
71148;SDS011;59072;42.144;25.200;2023-06-22T03:41:27;16.02;;;11.93;;
71148;SDS011;59072;42.144;25.200;2023-06-22T03:43:52;13.65;;;11.30;;
71148;SDS011;59072;42.144;25.200;2023-06-22T03:46:18;15.10;;;12.30;;
71148;SDS011;59072;42.144;25.200;2023-06-22T03:48:44;14.75;;;11.55;;
71148;SDS011;59072;42.144;25.200;2023-06-22T03:51:10;14.70;;;11.18;;
71148;SDS011;59072;42.144;25.200;2023-06-22T03:53:35;13.43;;;11.48;;
71148;SDS011;59072;42.144;25.200;2023-06-22T03:56:01;15.80;;;11.38;;
71148;SDS011;59072;42.144;25.200;2023-06-22T03:58:26;13.95;;;11.75;;
71148;SDS011;59072;42.144;25.200;2023-06-22T04:00:52;14.00;;;11.88;;
71148;SDS011;59072;42.144;25.200;2023-06-22T04:03:18;15.07;;;12.02;;
71148;SDS011;59072;42.144;25.200;2023-06-22T04:05:44;16.45;;;12.57;;
71148;SDS011;59072;42.144;25.200;2023-06-22T04:08:10;15.98;;;12.60;;
71148;SDS011;59072;42.144;25.200;2023-06-22T04:10:36;16.05;;;12.18;;
71148;SDS011;59072;42.144;25.200;2023-06-22T04:13:01;15.85;;;11.68;;
71148;SDS011;59072;42.144;25.200;2023-06-22T04:15:27;13.85;;;12.20;;
71148;SDS011;59072;42.144;25.200;2023-06-22T04:17:53;15.32;;;12.70;;
71148;SDS011;59072;42.144;25.200;2023-06-22T04:20:20;14.43;;;12.23;;
71148;SDS011;59072;42.144;25.200;2023-06-22T04:22:45;16.00;;;12.32;;
71148;SDS011;59072;42.144;25.200;2023-06-22T04:25:11;15.07;;;12.43;;
71148;SDS011;59072;42.144;25.200;2023-06-22T04:27:36;14.48;;;12.27;;
71148;SDS011;59072;42.144;25.200;2023-06-22T04:30:05;16.08;;;12.30;;
71148;SDS011;59072;42.144;25.200;2023-06-22T04:32:32;16.93;;;13.40;;
71148;SDS011;59072;42.144;25.200;2023-06-22T04:34:57;14.55;;;12.18;;
71148;SDS011;59072;42.144;25.200;2023-06-22T04:37:25;16.50;;;12.95;;
71148;SDS011;59072;42.144;25.200;2023-06-22T04:39:51;17.73;;;13.20;;
71148;SDS011;59072;42.144;25.200;2023-06-22T04:42:16;15.13;;;12.40;;
71148;SDS011;59072;42.144;25.200;2023-06-22T04:44:42;14.75;;;12.05;;
71148;SDS011;59072;42.144;25.200;2023-06-22T04:47:07;17.17;;;12.63;;
71148;SDS011;59072;42.144;25.200;2023-06-22T04:49:36;18.17;;;12.45;;
71148;SDS011;59072;42.144;25.200;2023-06-22T04:52:05;15.52;;;12.88;;
71148;SDS011;59072;42.144;25.200;2023-06-22T04:54:32;16.10;;;13.32;;
71148;SDS011;59072;42.144;25.200;2023-06-22T04:56:59;14.90;;;12.90;;
71148;SDS011;59072;42.144;25.200;2023-06-22T04:59:26;15.48;;;13.15;;
71148;SDS011;59072;42.144;25.200;2023-06-22T05:01:55;21.85;;;13.48;;
71148;SDS011;59072;42.144;25.200;2023-06-22T05:04:28;15.40;;;13.77;;
71148;SDS011;59072;42.144;25.200;2023-06-22T05:06:56;19.77;;;14.95;;
71148;SDS011;59072;42.144;25.200;2023-06-22T05:09:22;20.75;;;14.05;;
71148;SDS011;59072;42.144;25.200;2023-06-22T05:11:47;18.23;;;13.85;;
71148;SDS011;59072;42.144;25.200;2023-06-22T05:14:13;17.15;;;14.27;;
71148;SDS011;59072;42.144;25.200;2023-06-22T05:16:40;21.10;;;14.70;;
71148;SDS011;59072;42.144;25.200;2023-06-22T05:19:07;19.52;;;15.23;;
71148;SDS011;59072;42.144;25.200;2023-06-22T05:21:32;17.17;;;14.57;;
71148;SDS011;59072;42.144;25.200;2023-06-22T05:23:58;19.02;;;14.90;;
71148;SDS011;59072;42.144;25.200;2023-06-22T05:26:28;17.73;;;15.70;;
71148;SDS011;59072;42.144;25.200;2023-06-22T05:28:55;19.58;;;15.18;;
71148;SDS011;59072;42.144;25.200;2023-06-22T05:31:21;17.50;;;15.32;;
71148;SDS011;59072;42.144;25.200;2023-06-22T05:33:47;19.63;;;15.30;;
71148;SDS011;59072;42.144;25.200;2023-06-22T05:36:13;18.08;;;15.52;;
71148;SDS011;59072;42.144;25.200;2023-06-22T05:38:39;19.17;;;15.88;;
71148;SDS011;59072;42.144;25.200;2023-06-22T05:41:05;18.08;;;16.08;;
71148;SDS011;59072;42.144;25.200;2023-06-22T05:43:31;21.27;;;15.80;;
71148;SDS011;59072;42.144;25.200;2023-06-22T05:45:56;18.30;;;14.73;;
71148;SDS011;59072;42.144;25.200;2023-06-22T05:48:22;17.33;;;14.77;;
71148;SDS011;59072;42.144;25.200;2023-06-22T05:50:48;20.38;;;14.65;;
71148;SDS011;59072;42.144;25.200;2023-06-22T05:53:13;15.85;;;12.80;;
71148;SDS011;59072;42.144;25.200;2023-06-22T05:55:39;15.27;;;12.27;;
71148;SDS011;59072;42.144;25.200;2023-06-22T05:58:04;14.00;;;12.25;;
71148;SDS011;59072;42.144;25.200;2023-06-22T06:00:30;12.98;;;11.40;;
71148;SDS011;59072;42.144;25.200;2023-06-22T06:02:56;13.23;;;11.77;;
71148;SDS011;59072;42.144;25.200;2023-06-22T06:05:21;16.83;;;12.57;;
71148;SDS011;59072;42.144;25.200;2023-06-22T06:07:48;13.25;;;11.82;;
71148;SDS011;59072;42.144;25.200;2023-06-22T06:10:14;12.52;;;10.20;;
71148;SDS011;59072;42.144;25.200;2023-06-22T06:12:40;12.80;;;10.98;;
71148;SDS011;59072;42.144;25.200;2023-06-22T06:15:05;14.05;;;10.15;;
71148;SDS011;59072;42.144;25.200;2023-06-22T06:17:31;13.68;;;10.63;;
71148;SDS011;59072;42.144;25.200;2023-06-22T06:19:58;13.45;;;11.15;;
71148;SDS011;59072;42.144;25.200;2023-06-22T06:22:24;16.10;;;12.50;;
71148;SDS011;59072;42.144;25.200;2023-06-22T06:24:49;13.88;;;11.80;;
71148;SDS011;59072;42.144;25.200;2023-06-22T06:27:15;13.10;;;11.30;;
71148;SDS011;59072;42.144;25.200;2023-06-22T06:29:43;12.88;;;11.05;;
71148;SDS011;59072;42.144;25.200;2023-06-22T06:32:10;12.80;;;11.43;;
71148;SDS011;59072;42.144;25.200;2023-06-22T06:34:36;12.45;;;10.73;;
71148;SDS011;59072;42.144;25.200;2023-06-22T06:37:01;13.15;;;11.63;;
71148;SDS011;59072;42.144;25.200;2023-06-22T06:39:27;12.73;;;11.35;;
71148;SDS011;59072;42.144;25.200;2023-06-22T06:41:52;11.95;;;10.75;;
71148;SDS011;59072;42.144;25.200;2023-06-22T06:44:18;15.07;;;11.05;;
71148;SDS011;59072;42.144;25.200;2023-06-22T06:46:44;12.15;;;10.90;;
71148;SDS011;59072;42.144;25.200;2023-06-22T06:49:09;14.32;;;12.38;;
71148;SDS011;59072;42.144;25.200;2023-06-22T06:51:35;12.93;;;11.43;;
71148;SDS011;59072;42.144;25.200;2023-06-22T06:54:01;13.32;;;11.50;;
71148;SDS011;59072;42.144;25.200;2023-06-22T06:56:28;12.60;;;11.30;;
71148;SDS011;59072;42.144;25.200;2023-06-22T06:58:54;12.98;;;11.57;;
71148;SDS011;59072;42.144;25.200;2023-06-22T07:01:20;13.00;;;11.45;;
71148;SDS011;59072;42.144;25.200;2023-06-22T07:03:45;15.68;;;11.48;;
71148;SDS011;59072;42.144;25.200;2023-06-22T07:06:11;13.70;;;12.23;;
71148;SDS011;59072;42.144;25.200;2023-06-22T07:08:36;18.65;;;11.20;;
71148;SDS011;59072;42.144;25.200;2023-06-22T07:11:02;13.70;;;11.20;;
71148;SDS011;59072;42.144;25.200;2023-06-22T07:13:27;14.32;;;11.40;;
71148;SDS011;59072;42.144;25.200;2023-06-22T07:15:53;13.38;;;10.50;;
71148;SDS011;59072;42.144;25.200;2023-06-22T07:18:18;13.60;;;11.27;;
71148;SDS011;59072;42.144;25.200;2023-06-22T07:20:44;14.77;;;10.50;;
71148;SDS011;59072;42.144;25.200;2023-06-22T07:23:09;11.80;;;10.43;;
71148;SDS011;59072;42.144;25.200;2023-06-22T07:25:35;15.88;;;10.43;;
71148;SDS011;59072;42.144;25.200;2023-06-22T07:28:04;11.93;;;10.65;;
71148;SDS011;59072;42.144;25.200;2023-06-22T07:30:30;12.20;;;10.63;;
71148;SDS011;59072;42.144;25.200;2023-06-22T07:32:57;11.73;;;10.23;;
71148;SDS011;59072;42.144;25.200;2023-06-22T07:35:23;13.18;;;10.50;;
71148;SDS011;59072;42.144;25.200;2023-06-22T07:37:49;11.70;;;9.75;;
71148;SDS011;59072;42.144;25.200;2023-06-22T07:40:14;12.00;;;9.65;;
71148;SDS011;59072;42.144;25.200;2023-06-22T07:42:40;15.10;;;9.43;;
71148;SDS011;59072;42.144;25.200;2023-06-22T07:45:06;12.95;;;9.02;;
71148;SDS011;59072;42.144;25.200;2023-06-22T07:47:33;9.77;;;8.50;;
71148;SDS011;59072;42.144;25.200;2023-06-22T07:50:00;13.00;;;8.90;;
71148;SDS011;59072;42.144;25.200;2023-06-22T07:52:29;9.40;;;8.35;;
71148;SDS011;59072;42.144;25.200;2023-06-22T07:54:55;11.52;;;9.48;;
71148;SDS011;59072;42.144;25.200;2023-06-22T07:57:21;9.80;;;8.50;;
71148;SDS011;59072;42.144;25.200;2023-06-22T07:59:46;9.23;;;8.30;;
71148;SDS011;59072;42.144;25.200;2023-06-22T08:02:12;9.73;;;7.97;;
71148;SDS011;59072;42.144;25.200;2023-06-22T08:04:38;9.65;;;8.30;;
71148;SDS011;59072;42.144;25.200;2023-06-22T08:07:04;11.25;;;8.70;;
71148;SDS011;59072;42.144;25.200;2023-06-22T08:09:30;9.88;;;8.55;;
71148;SDS011;59072;42.144;25.200;2023-06-22T08:11:57;10.88;;;8.45;;
71148;SDS011;59072;42.144;25.200;2023-06-22T08:14:23;11.27;;;9.23;;
71148;SDS011;59072;42.144;25.200;2023-06-22T08:16:50;11.20;;;8.20;;
71148;SDS011;59072;42.144;25.200;2023-06-22T08:19:15;10.63;;;8.00;;
71148;SDS011;59072;42.144;25.200;2023-06-22T08:21:41;9.57;;;8.55;;
71148;SDS011;59072;42.144;25.200;2023-06-22T08:24:07;10.23;;;7.55;;
71148;SDS011;59072;42.144;25.200;2023-06-22T08:26:33;8.93;;;8.02;;
71148;SDS011;59072;42.144;25.200;2023-06-22T08:29:02;10.23;;;8.63;;
71148;SDS011;59072;42.144;25.200;2023-06-22T08:31:28;9.73;;;8.13;;
71148;SDS011;59072;42.144;25.200;2023-06-22T08:33:53;9.95;;;8.30;;
71148;SDS011;59072;42.144;25.200;2023-06-22T08:36:19;10.07;;;8.45;;
71148;SDS011;59072;42.144;25.200;2023-06-22T08:38:44;11.23;;;9.02;;
71148;SDS011;59072;42.144;25.200;2023-06-22T08:41:10;13.73;;;9.13;;
71148;SDS011;59072;42.144;25.200;2023-06-22T08:43:35;14.75;;;9.32;;
71148;SDS011;59072;42.144;25.200;2023-06-22T08:46:01;10.25;;;8.05;;
71148;SDS011;59072;42.144;25.200;2023-06-22T08:48:27;10.13;;;7.57;;
71148;SDS011;59072;42.144;25.200;2023-06-22T08:50:53;20.13;;;9.38;;
71148;SDS011;59072;42.144;25.200;2023-06-22T08:53:18;59.97;;;15.95;;
71148;SDS011;59072;42.144;25.200;2023-06-22T08:55:44;54.47;;;17.17;;
71148;SDS011;59072;42.144;25.200;2023-06-22T08:58:10;49.85;;;15.98;;
71148;SDS011;59072;42.144;25.200;2023-06-22T09:00:35;14.48;;;7.93;;
71148;SDS011;59072;42.144;25.200;2023-06-22T09:03:01;14.40;;;8.52;;
71148;SDS011;59072;42.144;25.200;2023-06-22T09:05:26;72.75;;;19.67;;
71148;SDS011;59072;42.144;25.200;2023-06-22T09:07:52;30.25;;;12.27;;
71148;SDS011;59072;42.144;25.200;2023-06-22T09:10:20;31.10;;;12.02;;
71148;SDS011;59072;42.144;25.200;2023-06-22T09:12:45;9.35;;;7.43;;
71148;SDS011;59072;42.144;25.200;2023-06-22T09:15:11;8.77;;;7.88;;
71148;SDS011;59072;42.144;25.200;2023-06-22T09:17:36;9.35;;;7.40;;
71148;SDS011;59072;42.144;25.200;2023-06-22T09:20:02;9.50;;;8.07;;
71148;SDS011;59072;42.144;25.200;2023-06-22T09:22:31;10.95;;;7.68;;
71148;SDS011;59072;42.144;25.200;2023-06-22T09:24:57;9.88;;;8.10;;
71148;SDS011;59072;42.144;25.200;2023-06-22T09:27:22;11.25;;;7.93;;
71148;SDS011;59072;42.144;25.200;2023-06-22T09:29:48;9.95;;;7.35;;
71148;SDS011;59072;42.144;25.200;2023-06-22T09:32:14;11.37;;;7.53;;
71148;SDS011;59072;42.144;25.200;2023-06-22T09:34:40;10.32;;;7.70;;
71148;SDS011;59072;42.144;25.200;2023-06-22T09:37:05;11.40;;;7.93;;
71148;SDS011;59072;42.144;25.200;2023-06-22T09:39:31;10.27;;;7.55;;
71148;SDS011;59072;42.144;25.200;2023-06-22T09:41:58;8.10;;;7.15;;
71148;SDS011;59072;42.144;25.200;2023-06-22T09:44:25;9.23;;;7.60;;
71148;SDS011;59072;42.144;25.200;2023-06-22T09:46:50;9.02;;;6.95;;
71148;SDS011;59072;42.144;25.200;2023-06-22T09:49:15;11.02;;;7.68;;
71148;SDS011;59072;42.144;25.200;2023-06-22T09:51:41;8.90;;;7.63;;
71148;SDS011;59072;42.144;25.200;2023-06-22T09:54:06;8.95;;;7.03;;
71148;SDS011;59072;42.144;25.200;2023-06-22T09:56:32;10.20;;;6.97;;
71148;SDS011;59072;42.144;25.200;2023-06-22T09:58:57;10.88;;;7.40;;
71148;SDS011;59072;42.144;25.200;2023-06-22T10:01:23;9.13;;;7.25;;
71148;SDS011;59072;42.144;25.200;2023-06-22T10:03:49;8.45;;;7.43;;
71148;SDS011;59072;42.144;25.200;2023-06-22T10:06:15;9.43;;;7.80;;
71148;SDS011;59072;42.144;25.200;2023-06-22T10:08:40;10.32;;;7.90;;
71148;SDS011;59072;42.144;25.200;2023-06-22T10:11:06;10.63;;;7.40;;
71148;SDS011;59072;42.144;25.200;2023-06-22T10:13:32;9.57;;;7.15;;
71148;SDS011;59072;42.144;25.200;2023-06-22T10:15:57;10.43;;;7.85;;
71148;SDS011;59072;42.144;25.200;2023-06-22T10:18:22;12.57;;;7.47;;
71148;SDS011;59072;42.144;25.200;2023-06-22T10:20:49;10.25;;;6.93;;
71148;SDS011;59072;42.144;25.200;2023-06-22T10:23:21;10.18;;;7.55;;
71148;SDS011;59072;42.144;25.200;2023-06-22T10:25:47;9.98;;;7.50;;
71148;SDS011;59072;42.144;25.200;2023-06-22T10:28:13;9.70;;;7.45;;
71148;SDS011;59072;42.144;25.200;2023-06-22T10:30:41;11.38;;;7.63;;
71148;SDS011;59072;42.144;25.200;2023-06-22T10:33:08;9.43;;;7.00;;
71148;SDS011;59072;42.144;25.200;2023-06-22T10:35:34;8.73;;;7.53;;
71148;SDS011;59072;42.144;25.200;2023-06-22T10:38:00;12.07;;;7.28;;
71148;SDS011;59072;42.144;25.200;2023-06-22T10:40:25;8.90;;;7.43;;
71148;SDS011;59072;42.144;25.200;2023-06-22T10:42:51;11.32;;;7.40;;
71148;SDS011;59072;42.144;25.200;2023-06-22T10:45:16;9.88;;;7.55;;
71148;SDS011;59072;42.144;25.200;2023-06-22T10:47:42;10.20;;;7.15;;
71148;SDS011;59072;42.144;25.200;2023-06-22T10:50:08;13.65;;;7.82;;
71148;SDS011;59072;42.144;25.200;2023-06-22T10:52:33;8.65;;;6.97;;
71148;SDS011;59072;42.144;25.200;2023-06-22T10:54:59;8.98;;;7.45;;
71148;SDS011;59072;42.144;25.200;2023-06-22T10:57:24;7.88;;;7.07;;
71148;SDS011;59072;42.144;25.200;2023-06-22T10:59:50;8.55;;;7.60;;
71148;SDS011;59072;42.144;25.200;2023-06-22T11:02:15;7.95;;;7.15;;
71148;SDS011;59072;42.144;25.200;2023-06-22T11:04:40;11.05;;;7.57;;
71148;SDS011;59072;42.144;25.200;2023-06-22T11:07:06;8.73;;;7.82;;
71148;SDS011;59072;42.144;25.200;2023-06-22T11:09:31;11.55;;;7.90;;
71148;SDS011;59072;42.144;25.200;2023-06-22T11:11:57;8.75;;;7.75;;
71148;SDS011;59072;42.144;25.200;2023-06-22T11:14:24;11.07;;;7.90;;
71148;SDS011;59072;42.144;25.200;2023-06-22T11:16:49;9.23;;;7.68;;
71148;SDS011;59072;42.144;25.200;2023-06-22T11:19:15;9.60;;;8.20;;
71148;SDS011;59072;42.144;25.200;2023-06-22T11:21:40;13.93;;;8.98;;
71148;SDS011;59072;42.144;25.200;2023-06-22T11:24:06;10.73;;;8.13;;
71148;SDS011;59072;42.144;25.200;2023-06-22T11:26:32;9.43;;;8.43;;
71148;SDS011;59072;42.144;25.200;2023-06-22T11:28:58;9.60;;;8.70;;
71148;SDS011;59072;42.144;25.200;2023-06-22T11:31:24;10.32;;;8.43;;
71148;SDS011;59072;42.144;25.200;2023-06-22T11:33:49;12.48;;;8.32;;
71148;SDS011;59072;42.144;25.200;2023-06-22T11:36:15;9.45;;;8.48;;
71148;SDS011;59072;42.144;25.200;2023-06-22T11:38:41;13.75;;;10.95;;
71148;SDS011;59072;42.144;25.200;2023-06-22T11:41:07;9.23;;;7.78;;
71148;SDS011;59072;42.144;25.200;2023-06-22T11:43:33;9.65;;;8.65;;
71148;SDS011;59072;42.144;25.200;2023-06-22T11:45:59;8.98;;;8.07;;
71148;SDS011;59072;42.144;25.200;2023-06-22T11:48:26;8.98;;;8.07;;
71148;SDS011;59072;42.144;25.200;2023-06-22T11:50:51;8.73;;;7.72;;
71148;SDS011;59072;42.144;25.200;2023-06-22T11:53:17;8.88;;;7.93;;
71148;SDS011;59072;42.144;25.200;2023-06-22T11:55:43;8.50;;;7.60;;
71148;SDS011;59072;42.144;25.200;2023-06-22T11:58:11;8.48;;;7.57;;
71148;SDS011;59072;42.144;25.200;2023-06-22T12:00:36;9.45;;;8.45;;
71148;SDS011;59072;42.144;25.200;2023-06-22T12:03:02;9.50;;;7.88;;
71148;SDS011;59072;42.144;25.200;2023-06-22T12:05:28;7.90;;;7.10;;
71148;SDS011;59072;42.144;25.200;2023-06-22T12:07:54;9.65;;;7.60;;
71148;SDS011;59072;42.144;25.200;2023-06-22T12:10:20;9.13;;;7.07;;
71148;SDS011;59072;42.144;25.200;2023-06-22T12:12:46;10.95;;;7.90;;
71148;SDS011;59072;42.144;25.200;2023-06-22T12:15:11;9.63;;;7.82;;
71148;SDS011;59072;42.144;25.200;2023-06-22T12:17:37;12.07;;;7.47;;
71148;SDS011;59072;42.144;25.200;2023-06-22T12:20:03;10.43;;;7.70;;
71148;SDS011;59072;42.144;25.200;2023-06-22T12:22:33;10.55;;;8.05;;
71148;SDS011;59072;42.144;25.200;2023-06-22T12:24:59;8.55;;;7.65;;
71148;SDS011;59072;42.144;25.200;2023-06-22T12:27:24;9.45;;;8.00;;
71148;SDS011;59072;42.144;25.200;2023-06-22T12:29:50;11.95;;;9.02;;
71148;SDS011;59072;42.144;25.200;2023-06-22T12:32:16;9.55;;;8.02;;
71148;SDS011;59072;42.144;25.200;2023-06-22T12:34:42;8.93;;;7.57;;
71148;SDS011;59072;42.144;25.200;2023-06-22T12:37:08;9.00;;;7.60;;
71148;SDS011;59072;42.144;25.200;2023-06-22T12:39:33;10.27;;;8.32;;
71148;SDS011;59072;42.144;25.200;2023-06-22T12:41:59;9.13;;;7.88;;
71148;SDS011;59072;42.144;25.200;2023-06-22T12:44:25;9.23;;;8.30;;
71148;SDS011;59072;42.144;25.200;2023-06-22T12:46:50;9.60;;;7.47;;
71148;SDS011;59072;42.144;25.200;2023-06-22T12:49:16;9.65;;;8.05;;
71148;SDS011;59072;42.144;25.200;2023-06-22T12:51:42;8.13;;;6.82;;
71148;SDS011;59072;42.144;25.200;2023-06-22T12:56:34;8.63;;;7.70;;
71148;SDS011;59072;42.144;25.200;2023-06-22T12:59:00;10.40;;;8.20;;
71148;SDS011;59072;42.144;25.200;2023-06-22T13:01:29;8.70;;;7.80;;
71148;SDS011;59072;42.144;25.200;2023-06-22T13:03:55;9.03;;;7.57;;
71148;SDS011;59072;42.144;25.200;2023-06-22T13:06:21;8.82;;;7.93;;
71148;SDS011;59072;42.144;25.200;2023-06-22T13:08:46;9.05;;;7.82;;
71148;SDS011;59072;42.144;25.200;2023-06-22T13:11:12;9.68;;;6.95;;
71148;SDS011;59072;42.144;25.200;2023-06-22T13:13:38;9.60;;;7.50;;
71148;SDS011;59072;42.144;25.200;2023-06-22T13:16:03;8.82;;;7.82;;
71148;SDS011;59072;42.144;25.200;2023-06-22T13:18:29;8.18;;;7.35;;
71148;SDS011;59072;42.144;25.200;2023-06-22T13:20:54;9.20;;;6.97;;
71148;SDS011;59072;42.144;25.200;2023-06-22T13:23:20;9.27;;;7.13;;
71148;SDS011;59072;42.144;25.200;2023-06-22T13:25:46;8.95;;;7.13;;
71148;SDS011;59072;42.144;25.200;2023-06-22T13:28:12;9.23;;;6.97;;
71148;SDS011;59072;42.144;25.200;2023-06-22T13:30:42;23.20;;;7.90;;
71148;SDS011;59072;42.144;25.200;2023-06-22T13:33:08;9.85;;;7.93;;
71148;SDS011;59072;42.144;25.200;2023-06-22T13:35:34;11.32;;;7.60;;
71148;SDS011;59072;42.144;25.200;2023-06-22T13:38:03;10.18;;;7.60;;
71148;SDS011;59072;42.144;25.200;2023-06-22T13:40:28;10.23;;;7.85;;
71148;SDS011;59072;42.144;25.200;2023-06-22T13:42:54;8.80;;;7.40;;
71148;SDS011;59072;42.144;25.200;2023-06-22T13:45:20;8.80;;;7.65;;
71148;SDS011;59072;42.144;25.200;2023-06-22T13:47:45;9.80;;;7.47;;
71148;SDS011;59072;42.144;25.200;2023-06-22T13:50:11;7.95;;;7.00;;
71148;SDS011;59072;42.144;25.200;2023-06-22T13:52:40;9.57;;;7.57;;
71148;SDS011;59072;42.144;25.200;2023-06-22T13:55:05;7.70;;;6.80;;
71148;SDS011;59072;42.144;25.200;2023-06-22T13:57:35;8.68;;;7.43;;
71148;SDS011;59072;42.144;25.200;2023-06-22T14:00:00;8.25;;;7.30;;
71148;SDS011;59072;42.144;25.200;2023-06-22T14:02:33;8.15;;;7.35;;
71148;SDS011;59072;42.144;25.200;2023-06-22T14:04:58;9.98;;;7.38;;
71148;SDS011;59072;42.144;25.200;2023-06-22T14:07:24;8.93;;;8.02;;
71148;SDS011;59072;42.144;25.200;2023-06-22T14:09:50;9.75;;;8.05;;
71148;SDS011;59072;42.144;25.200;2023-06-22T14:12:15;12.90;;;8.30;;
71148;SDS011;59072;42.144;25.200;2023-06-22T14:17:08;9.00;;;7.87;;
71148;SDS011;59072;42.144;25.200;2023-06-22T14:19:33;11.65;;;7.65;;
71148;SDS011;59072;42.144;25.200;2023-06-22T14:21:59;8.38;;;7.47;;
71148;SDS011;59072;42.144;25.200;2023-06-22T14:24:24;9.65;;;7.55;;
71148;SDS011;59072;42.144;25.200;2023-06-22T14:26:50;8.88;;;7.40;;
71148;SDS011;59072;42.144;25.200;2023-06-22T14:29:15;11.13;;;7.50;;
71148;SDS011;59072;42.144;25.200;2023-06-22T14:31:44;8.93;;;7.70;;